createdAt,value
2018-12-19T00:01:05.370Z,23.00
2018-12-19T00:03:38.361Z,22.63
2018-12-19T00:06:11.724Z,23.37
2018-12-19T00:08:44.134Z,23.43
2018-12-19T00:11:16.506Z,24.03
2018-12-19T00:13:50.178Z,23.57
2018-12-19T00:16:22.674Z,22.87
2018-12-19T00:18:56.032Z,24.43
2018-12-19T00:21:28.863Z,24.07
2018-12-19T00:24:03.713Z,23.73
2018-12-19T00:26:37.957Z,23.97
2018-12-19T00:29:11.724Z,22.80
2018-12-19T00:31:45.910Z,22.23
2018-12-19T00:34:18.823Z,22.60
2018-12-19T00:36:52.808Z,22.47
2018-12-19T00:39:25.232Z,22.57
2018-12-19T00:41:58.908Z,24.33
2018-12-19T00:44:33.011Z,23.27
2018-12-19T00:47:07.278Z,23.40
2018-12-19T00:49:40.755Z,24.20
2018-12-19T00:52:16.443Z,23.53
2018-12-19T00:54:51.725Z,23.63
2018-12-19T00:57:22.828Z,23.83
2018-12-19T00:59:56.897Z,23.87
2018-12-19T01:02:31.724Z,23.20
2018-12-19T01:05:06.414Z,23.80
2018-12-19T01:07:39.330Z,23.30
2018-12-19T01:10:15.122Z,23.63
2018-12-19T01:12:48.019Z,22.37
2018-12-19T01:15:22.844Z,22.83
2018-12-19T01:17:55.181Z,21.53
2018-12-19T01:20:29.124Z,22.33
2018-12-19T01:23:03.792Z,22.37
2018-12-19T01:25:35.360Z,20.60
2018-12-19T01:28:11.080Z,22.37
2018-12-19T01:30:43.145Z,21.67
2018-12-19T01:33:17.969Z,22.23
2018-12-19T01:35:50.985Z,22.87
2018-12-19T01:38:28.262Z,21.60
2018-12-19T01:41:02.181Z,22.20
2018-12-19T01:43:34.897Z,21.70
2018-12-19T01:46:09.487Z,21.90
2018-12-19T01:48:42.436Z,20.97
2018-12-19T01:51:18.198Z,21.33
2018-12-19T01:53:51.724Z,20.60
2018-12-19T01:56:25.488Z,19.73
2018-12-19T01:58:59.031Z,19.77
2018-12-19T02:01:30.787Z,18.13
2018-12-19T02:04:04.015Z,18.47
2018-12-19T02:06:38.089Z,19.77
2018-12-19T02:09:12.559Z,18.03
2018-12-19T02:11:48.772Z,19.57
2018-12-19T02:14:21.724Z,19.83
2018-12-19T02:16:56.406Z,19.70
2018-12-19T02:19:28.943Z,19.47
2018-12-19T02:22:03.096Z,19.43
2018-12-19T02:24:38.007Z,20.07
2018-12-19T02:27:12.304Z,20.27
2018-12-19T02:29:44.454Z,19.40
2018-12-19T02:32:19.474Z,18.90
2018-12-19T02:34:54.141Z,18.47
2018-12-19T02:37:28.336Z,16.97
2018-12-19T02:40:04.452Z,17.17
2018-12-19T02:42:39.510Z,16.33
2018-12-19T02:45:14.390Z,16.37
2018-12-19T02:47:47.965Z,16.80
2018-12-19T02:50:20.735Z,17.40
2018-12-19T02:52:54.921Z,18.00
2018-12-19T02:55:29.123Z,16.77
2018-12-19T02:58:04.579Z,16.90
2018-12-19T03:00:38.196Z,16.40
2018-12-19T03:03:11.204Z,16.30
2018-12-19T03:05:46.213Z,16.57
2018-12-19T03:08:21.723Z,15.73
2018-12-19T03:10:54.851Z,15.57
2018-12-19T03:13:30.050Z,15.10
2018-12-19T03:16:03.485Z,15.10
2018-12-19T03:18:41.160Z,14.97
2018-12-19T03:21:14.307Z,14.57
2018-12-19T03:23:50.121Z,16.53
2018-12-19T03:26:22.963Z,16.23
2018-12-19T03:28:57.315Z,16.37
2018-12-19T03:31:31.727Z,16.20
2018-12-19T03:34:07.463Z,15.90
2018-12-19T03:36:42.777Z,16.33
2018-12-19T03:39:17.529Z,15.60
2018-12-19T03:41:51.724Z,15.60
2018-12-19T03:44:23.750Z,15.73
2018-12-19T03:46:57.363Z,16.13
2018-12-19T03:49:28.912Z,16.17
2018-12-19T03:52:01.969Z,15.93
2018-12-19T03:54:37.642Z,16.30
2018-12-19T03:57:09.469Z,16.53
2018-12-19T03:59:43.006Z,16.17
2018-12-19T04:02:17.077Z,16.60
2018-12-19T04:04:51.723Z,16.47
2018-12-19T04:07:26.713Z,15.20
2018-12-19T04:10:01.720Z,16.47
2018-12-19T04:12:37.428Z,16.93
2018-12-19T04:15:13.547Z,15.93
2018-12-19T04:17:48.145Z,16.13
2018-12-19T04:20:21.727Z,16.03
2018-12-19T04:22:58.176Z,15.67
2018-12-19T04:25:28.513Z,15.63
2018-12-19T04:28:04.048Z,14.97
2018-12-19T04:30:41.724Z,15.87
2018-12-19T04:33:15.123Z,15.33
2018-12-19T04:35:49.545Z,15.50
2018-12-19T04:38:21.724Z,14.57
2018-12-19T04:40:56.857Z,14.63
2018-12-19T04:43:28.878Z,13.83
2018-12-19T04:45:59.801Z,15.00
2018-12-19T04:48:36.665Z,14.53
2018-12-19T04:51:11.725Z,14.30
2018-12-19T04:53:45.778Z,14.20
2018-12-19T04:56:20.171Z,14.17
2018-12-19T04:58:55.221Z,13.70
2018-12-19T05:01:30.583Z,14.10
2018-12-19T05:04:05.553Z,14.60
2018-12-19T05:06:38.524Z,14.77
2018-12-19T05:09:12.788Z,12.90
2018-12-19T05:11:46.663Z,12.70
2018-12-19T05:14:20.944Z,13.60
2018-12-19T05:16:57.411Z,13.40
2018-12-19T05:19:31.125Z,12.60
2018-12-19T05:22:05.103Z,11.93
2018-12-19T05:24:37.815Z,12.50
2018-12-19T05:27:13.587Z,12.30
2018-12-19T05:29:50.112Z,12.37
2018-12-19T05:32:26.351Z,12.80
2018-12-19T05:35:01.006Z,12.90
2018-12-19T05:37:35.520Z,12.43
2018-12-19T05:40:10.340Z,11.40
2018-12-19T05:45:21.725Z,11.53
2018-12-19T05:47:57.988Z,11.43
2018-12-19T05:50:31.725Z,10.90
2018-12-19T05:53:07.359Z,11.47
2018-12-19T05:55:41.100Z,10.60
2018-12-19T05:58:14.907Z,10.97
2018-12-19T06:00:46.812Z,10.60
2018-12-19T06:03:22.457Z,10.43
2018-12-19T06:05:57.101Z,10.07
2018-12-19T06:08:31.724Z,9.90
2018-12-19T06:11:05.837Z,9.83
2018-12-19T06:13:41.724Z,8.80
2018-12-19T06:16:16.853Z,7.93
2018-12-19T06:18:52.622Z,8.17
2018-12-19T06:21:28.561Z,8.30
2018-12-19T06:24:01.487Z,8.00
2018-12-19T06:26:36.916Z,8.20
2018-12-19T06:29:12.970Z,7.63
2018-12-19T06:31:44.684Z,7.60
2018-12-19T06:34:17.418Z,6.90
2018-12-19T06:36:53.137Z,6.83
2018-12-19T06:39:25.935Z,6.93
2018-12-19T06:41:59.964Z,6.57
2018-12-19T06:44:31.037Z,6.93
2018-12-19T06:46:59.355Z,6.67
2018-12-19T06:49:35.741Z,6.57
2018-12-19T06:52:09.853Z,6.50
2018-12-19T06:54:45.508Z,6.83
2018-12-19T06:57:20.491Z,6.40
2018-12-19T06:59:58.361Z,6.30
2018-12-19T07:02:30.641Z,6.63
2018-12-19T07:05:05.428Z,6.73
2018-12-19T07:07:37.988Z,5.97
2018-12-19T07:10:13.021Z,5.70
2018-12-19T07:12:46.585Z,5.60
2018-12-19T07:15:20.592Z,5.57
2018-12-19T07:17:53.175Z,5.87
2018-12-19T07:20:28.169Z,5.50
2018-12-19T07:23:00.997Z,5.43
2018-12-19T07:25:36.649Z,5.40
2018-12-19T07:28:11.726Z,5.43
2018-12-19T07:30:43.767Z,5.60
2018-12-19T07:33:16.201Z,5.33
2018-12-19T07:35:50.043Z,6.57
2018-12-19T07:38:23.194Z,8.07
2018-12-19T07:40:56.802Z,7.97
2018-12-19T07:43:30.956Z,7.37
2018-12-19T07:46:04.767Z,7.17
2018-12-19T07:48:36.825Z,7.13
2018-12-19T07:51:13.857Z,6.77
2018-12-19T07:53:47.912Z,7.37
2018-12-19T07:56:21.725Z,7.13
2018-12-19T07:58:56.088Z,6.20
2018-12-19T08:01:31.725Z,6.23
2018-12-19T08:04:04.448Z,5.93
2018-12-19T08:06:38.481Z,6.07
2018-12-19T08:09:12.567Z,5.50
2018-12-19T08:11:45.042Z,5.57
2018-12-19T08:14:14.447Z,5.87
2018-12-19T08:16:47.610Z,5.80
2018-12-19T08:19:16.020Z,5.30
2018-12-19T08:21:51.724Z,5.23
2018-12-19T08:24:26.596Z,5.30
2018-12-19T08:26:58.842Z,5.40
2018-12-19T08:29:32.304Z,5.33
2018-12-19T08:32:04.777Z,5.33
2018-12-19T08:34:36.393Z,5.27
2018-12-19T08:37:10.204Z,5.63
2018-12-19T08:39:42.555Z,5.37
2018-12-19T08:42:15.233Z,4.93
2018-12-19T08:44:47.567Z,4.97
2018-12-19T08:47:20.179Z,4.93
2018-12-19T08:49:53.258Z,4.60
2018-12-19T08:52:25.088Z,4.07
2018-12-19T08:54:58.103Z,4.10
2018-12-19T08:57:31.726Z,4.10
2018-12-19T09:00:04.259Z,4.27
2018-12-19T09:02:35.481Z,3.57
2018-12-19T09:05:08.726Z,4.17
2018-12-19T09:07:40.907Z,4.00
2018-12-19T09:10:14.620Z,3.63
2018-12-19T09:12:49.395Z,3.90
2018-12-19T09:15:27.645Z,3.50
2018-12-19T09:17:55.509Z,3.67
2018-12-19T09:20:26.818Z,3.97
2018-12-19T09:23:03.155Z,4.10
2018-12-19T09:25:36.109Z,3.93
2018-12-19T09:28:11.599Z,3.93
2018-12-19T09:30:44.906Z,4.00
2018-12-19T09:33:27.170Z,4.80
2018-12-19T09:35:56.538Z,4.87
2018-12-19T09:38:30.538Z,3.77
2018-12-19T09:41:04.435Z,4.00
2018-12-19T09:43:40.211Z,4.10
2018-12-19T09:46:15.639Z,4.00
2018-12-19T09:48:49.490Z,4.37
2018-12-19T09:51:18.352Z,4.33
2018-12-19T09:53:53.315Z,4.67
2018-12-19T09:56:26.035Z,4.60
2018-12-19T09:58:58.703Z,4.57
2018-12-19T10:01:31.723Z,3.97
2018-12-19T10:04:06.586Z,3.70
2018-12-19T10:06:38.446Z,3.97
2018-12-19T10:09:14.764Z,4.30
2018-12-19T10:11:46.901Z,3.40
2018-12-19T10:14:17.398Z,3.33
2018-12-19T10:16:51.539Z,3.83
2018-12-19T10:19:25.910Z,4.30
2018-12-19T10:21:58.940Z,4.53
2018-12-19T10:24:37.441Z,5.80
2018-12-19T10:27:09.747Z,8.23
2018-12-19T10:29:41.603Z,9.17
2018-12-19T10:32:14.239Z,6.57
2018-12-19T10:34:51.723Z,8.40
2018-12-19T10:37:24.859Z,5.73
2018-12-19T10:40:01.002Z,5.17
2018-12-19T10:42:37.616Z,5.37
2018-12-19T10:45:13.332Z,5.33
2018-12-19T10:47:46.071Z,4.90
2018-12-19T10:50:20.988Z,5.20
2018-12-19T10:52:50.389Z,5.30
2018-12-19T10:58:01.094Z,5.70
2018-12-19T11:00:37.260Z,5.27
2018-12-19T11:03:11.725Z,5.90
2018-12-19T11:05:42.694Z,6.13
2018-12-19T11:08:16.092Z,5.20
2018-12-19T11:10:45.166Z,6.00
2018-12-19T11:13:16.193Z,6.37
2018-12-19T11:15:50.450Z,5.80
2018-12-19T11:18:25.076Z,5.33
2018-12-19T11:20:57.234Z,5.73
2018-12-19T11:23:29.484Z,5.93
2018-12-19T11:26:04.027Z,5.30
2018-12-19T11:28:39.540Z,5.47
2018-12-19T11:31:12.281Z,5.67
2018-12-19T11:33:45.172Z,6.23
2018-12-19T11:36:19.003Z,6.00
2018-12-19T11:38:53.411Z,6.17
2018-12-19T11:41:30.389Z,7.10
2018-12-19T11:44:05.092Z,7.53
2018-12-19T11:46:35.941Z,8.53
2018-12-19T11:49:12.207Z,8.07
2018-12-19T11:51:47.493Z,7.70
2018-12-19T11:54:20.694Z,6.83
2018-12-19T11:56:53.605Z,6.37
2018-12-19T11:59:24.614Z,6.33
2018-12-19T12:01:56.756Z,6.53
2018-12-19T12:04:31.389Z,5.43
2018-12-19T12:07:04.378Z,5.00
2018-12-19T12:09:37.780Z,6.20
2018-12-19T12:12:12.185Z,5.53
2018-12-19T12:14:41.830Z,5.70
2018-12-19T12:17:11.103Z,5.10
2018-12-19T12:19:47.271Z,4.30
2018-12-19T12:22:21.724Z,4.47
2018-12-19T12:24:53.989Z,4.40
2018-12-19T12:27:27.226Z,4.80
2018-12-19T12:29:59.782Z,5.10
2018-12-19T12:32:34.851Z,4.90
2018-12-19T12:35:08.444Z,4.50
2018-12-19T12:37:39.584Z,4.27
2018-12-19T12:40:12.389Z,4.70
2018-12-19T12:42:46.192Z,4.90
2018-12-19T12:45:18.569Z,4.57
2018-12-19T12:47:53.474Z,4.57
2018-12-19T12:50:26.451Z,4.73
2018-12-19T12:53:00.882Z,4.60
2018-12-19T12:55:32.870Z,4.63
2018-12-19T12:58:06.713Z,4.50
2018-12-19T13:00:41.724Z,4.70
2018-12-19T13:03:23.253Z,4.20
2018-12-19T13:05:57.702Z,5.80
2018-12-19T13:08:31.301Z,4.47
2018-12-19T13:11:05.075Z,4.50
2018-12-19T13:13:38.122Z,4.63
2018-12-19T13:16:10.655Z,4.53
2018-12-19T13:18:47.855Z,4.63
2018-12-19T13:21:22.475Z,4.40
2018-12-19T13:23:58.447Z,4.73
2018-12-19T13:26:31.847Z,4.80
2018-12-19T13:29:05.010Z,4.97
2018-12-19T13:31:37.578Z,5.13
2018-12-19T13:34:11.641Z,5.20
2018-12-19T13:36:40.892Z,5.70
2018-12-19T13:39:14.747Z,6.13
2018-12-19T13:41:45.967Z,7.20
2018-12-19T13:44:16.568Z,6.80
2018-12-19T13:46:49.782Z,7.20
2018-12-19T13:49:19.991Z,7.63
2018-12-19T13:51:53.375Z,8.50
2018-12-19T13:54:21.724Z,8.03
2018-12-19T13:56:56.437Z,9.07
2018-12-19T13:59:30.673Z,9.10
2018-12-19T14:02:04.270Z,8.87
2018-12-19T14:04:37.188Z,9.27
2018-12-19T14:07:07.866Z,9.90
2018-12-19T14:09:36.661Z,9.97
2018-12-19T14:12:12.394Z,8.80
2018-12-19T14:14:47.338Z,9.00
2018-12-19T14:17:19.376Z,9.03
2018-12-19T14:19:52.355Z,9.63
2018-12-19T14:22:24.995Z,8.57
2018-12-19T14:24:58.365Z,8.80
2018-12-19T14:27:31.825Z,10.70
2018-12-19T14:30:06.365Z,9.30
2018-12-19T14:32:40.388Z,10.17
2018-12-19T14:35:11.443Z,9.87
2018-12-19T14:37:44.848Z,8.87
2018-12-19T14:40:12.883Z,8.67
2018-12-19T14:42:47.399Z,8.23
2018-12-19T14:45:19.880Z,8.10
2018-12-19T14:47:52.304Z,7.77
2018-12-19T14:50:26.479Z,7.93
2018-12-19T14:52:58.759Z,8.10
2018-12-19T14:55:31.317Z,7.70
2018-12-19T14:58:02.930Z,7.40
2018-12-19T15:00:36.028Z,8.10
2018-12-19T15:03:08.606Z,7.93
2018-12-19T15:05:38.519Z,7.63
2018-12-19T15:08:09.372Z,7.80
2018-12-19T15:10:43.054Z,8.67
2018-12-19T15:13:15.278Z,8.50
2018-12-19T15:15:47.611Z,8.17
2018-12-19T15:18:22.057Z,7.77
2018-12-19T15:20:52.185Z,8.00
2018-12-19T15:23:26.342Z,8.00
2018-12-19T15:25:57.042Z,7.80
2018-12-19T15:28:30.533Z,7.90
2018-12-19T15:31:02.437Z,7.60
2018-12-19T15:33:30.043Z,7.60
2018-12-19T15:35:57.594Z,7.73
2018-12-19T15:38:26.273Z,8.17
2018-12-19T15:40:57.963Z,7.87
2018-12-19T15:43:25.511Z,7.90
2018-12-19T15:45:57.080Z,8.07
2018-12-19T15:48:32.631Z,7.80
2018-12-19T15:51:01.455Z,8.00
2018-12-19T15:53:34.690Z,8.13
2018-12-19T15:56:02.255Z,10.07
2018-12-19T15:58:29.852Z,8.87
2018-12-19T16:01:00.139Z,8.10
2018-12-19T16:03:33.415Z,15.40
2018-12-19T16:06:03.036Z,14.07
2018-12-19T16:08:36.020Z,9.10
2018-12-19T16:11:08.612Z,8.90
2018-12-19T16:13:42.511Z,8.83
2018-12-19T16:16:15.794Z,10.30
2018-12-19T16:18:50.338Z,9.90
2018-12-19T16:21:23.956Z,10.20
2018-12-19T16:23:59.655Z,9.60
2018-12-19T16:26:33.028Z,10.57
2018-12-19T16:29:05.802Z,11.40
2018-12-19T16:31:38.260Z,12.40
2018-12-19T16:34:11.335Z,10.47
2018-12-19T16:36:43.987Z,11.43
2018-12-19T16:39:18.668Z,11.27
2018-12-19T16:41:51.691Z,11.80
2018-12-19T16:44:19.712Z,11.80
2018-12-19T16:46:47.790Z,10.97
2018-12-19T16:49:16.668Z,10.90
2018-12-19T16:51:50.113Z,11.10
2018-12-19T16:54:18.869Z,11.07
2018-12-19T16:56:48.000Z,11.43
2018-12-19T16:59:18.490Z,10.43
2018-12-19T17:01:53.011Z,10.67
2018-12-19T17:04:27.099Z,9.53
2018-12-19T17:06:57.359Z,9.93
2018-12-19T17:09:31.720Z,9.23
2018-12-19T17:12:03.563Z,9.10
2018-12-19T17:14:35.243Z,9.13
2018-12-19T17:17:07.466Z,8.97
2018-12-19T17:19:40.741Z,9.13
2018-12-19T17:22:13.417Z,10.50
2018-12-19T17:24:46.748Z,12.67
2018-12-19T17:27:17.177Z,12.40
2018-12-19T17:29:45.501Z,11.30
2018-12-19T17:32:13.322Z,9.93
2018-12-19T17:34:41.017Z,9.43
2018-12-19T17:37:11.512Z,8.37
2018-12-19T17:39:47.946Z,7.43
2018-12-19T17:42:24.301Z,7.50
2018-12-19T17:45:02.786Z,6.83
2018-12-19T17:47:36.509Z,5.93
2018-12-19T17:50:08.784Z,6.53
2018-12-19T17:52:45.203Z,6.37
2018-12-19T17:55:15.642Z,6.80
2018-12-19T17:57:46.536Z,7.40
2018-12-19T18:00:17.114Z,7.10
2018-12-19T18:02:48.002Z,7.57
2018-12-19T18:05:16.140Z,8.07
2018-12-19T18:07:44.151Z,8.10
2018-12-19T18:10:12.224Z,10.93
2018-12-19T18:12:41.394Z,10.87
2018-12-19T18:15:15.767Z,15.33
2018-12-19T18:17:47.024Z,15.33
2018-12-19T18:20:18.696Z,12.60
2018-12-19T18:22:51.575Z,11.53
2018-12-19T18:25:24.232Z,11.30
2018-12-19T18:27:57.924Z,11.17
2018-12-19T18:30:33.176Z,9.33
2018-12-19T18:33:07.091Z,8.23
2018-12-19T18:35:38.050Z,8.03
2018-12-19T18:38:11.724Z,10.33
2018-12-19T18:40:44.979Z,10.70
2018-12-19T18:43:17.651Z,9.90
2018-12-19T18:45:54.115Z,8.53
2018-12-19T18:48:25.912Z,10.80
2018-12-19T18:50:58.803Z,9.77
2018-12-19T18:53:34.248Z,10.47
2018-12-19T18:56:07.047Z,10.03
2018-12-19T18:58:40.582Z,8.93
2018-12-19T19:01:12.551Z,8.43
2018-12-19T19:03:46.211Z,8.17
2018-12-19T19:06:17.548Z,8.10
2018-12-19T19:08:49.986Z,8.27
2018-12-19T19:11:22.264Z,8.53
2018-12-19T19:13:55.253Z,9.57
2018-12-19T19:16:26.634Z,9.20
2018-12-19T19:18:58.669Z,9.33
2018-12-19T19:21:31.004Z,9.57
2018-12-19T19:24:02.950Z,9.53
2018-12-19T19:26:35.288Z,9.77
2018-12-19T19:29:09.131Z,9.90
2018-12-19T19:31:42.004Z,9.87
2018-12-19T19:34:14.119Z,9.43
2018-12-19T19:36:46.909Z,8.90
2018-12-19T19:39:16.564Z,8.80
2018-12-19T19:41:51.221Z,8.97
2018-12-19T19:44:19.135Z,8.50
2018-12-19T19:46:54.437Z,8.20
2018-12-19T19:49:26.923Z,8.63
2018-12-19T19:52:01.207Z,8.17
2018-12-19T19:54:32.541Z,7.80
2018-12-19T19:57:00.380Z,8.50
2018-12-19T19:59:31.343Z,8.17
2018-12-19T20:02:05.677Z,7.40
2018-12-19T20:04:41.681Z,7.30
2018-12-19T20:07:16.216Z,7.17
2018-12-19T20:09:50.585Z,7.37
2018-12-19T20:12:24.319Z,8.17
2018-12-19T20:14:56.369Z,7.97
2018-12-19T20:17:32.238Z,8.13
2018-12-19T20:20:07.233Z,7.17
2018-12-19T20:22:41.003Z,7.27
2018-12-19T20:25:14.674Z,7.50
2018-12-19T20:27:46.833Z,7.93
2018-12-19T20:30:16.444Z,7.67
2018-12-19T20:32:50.976Z,7.50
2018-12-19T20:35:22.235Z,7.57
2018-12-19T20:37:58.280Z,7.97
2018-12-19T20:40:31.463Z,8.77
2018-12-19T20:43:06.556Z,9.17
2018-12-19T20:45:38.216Z,8.80
2018-12-19T20:48:14.829Z,9.33
2018-12-19T20:50:48.527Z,8.50
2018-12-19T20:53:22.466Z,9.50
2018-12-19T20:55:55.538Z,10.50
2018-12-19T20:58:31.724Z,11.70
2018-12-19T21:01:08.142Z,10.87
2018-12-19T21:03:45.260Z,12.67
2018-12-19T21:06:20.265Z,12.20
2018-12-19T21:08:58.668Z,12.00
2018-12-19T21:11:27.807Z,11.87
2018-12-19T21:14:02.914Z,12.70
2018-12-19T21:16:43.342Z,12.90
2018-12-19T21:19:17.873Z,13.03
2018-12-19T21:21:49.261Z,13.00
2018-12-19T21:24:24.681Z,13.87
2018-12-19T21:26:57.721Z,14.13
2018-12-19T21:29:31.723Z,14.07
2018-12-19T21:32:02.207Z,14.37
2018-12-19T21:34:38.157Z,13.67
2018-12-19T21:37:13.636Z,14.57
2018-12-19T21:39:47.503Z,14.57
2018-12-19T21:42:18.132Z,14.40
2018-12-19T21:44:52.174Z,14.87
2018-12-19T21:47:26.574Z,16.00
2018-12-19T21:49:57.667Z,14.73
2018-12-19T21:52:31.928Z,16.07
2018-12-19T21:55:03.987Z,15.93
2018-12-19T21:57:36.423Z,16.17
2018-12-19T22:00:13.249Z,16.70
2018-12-19T22:02:46.144Z,15.67
2018-12-19T22:05:16.950Z,16.67
2018-12-19T22:07:51.723Z,17.47
2018-12-19T22:10:26.526Z,16.20
2018-12-19T22:13:02.676Z,17.30
2018-12-19T22:15:36.245Z,16.50
2018-12-19T22:18:11.176Z,16.47
2018-12-19T22:20:40.929Z,16.13
2018-12-19T22:23:16.610Z,16.93
2018-12-19T22:25:51.742Z,16.87
2018-12-19T22:28:24.037Z,17.27
2018-12-19T22:30:52.300Z,16.37
2018-12-19T22:33:28.663Z,17.47
2018-12-19T22:36:04.155Z,16.27
2018-12-19T22:38:41.721Z,16.10
2018-12-19T22:41:18.028Z,16.80
2018-12-19T22:43:52.572Z,16.43
2018-12-19T22:46:26.284Z,16.17
2018-12-19T22:49:00.280Z,16.07
2018-12-19T22:54:09.099Z,16.07
2018-12-19T22:56:42.521Z,15.47
2018-12-19T22:59:17.892Z,14.97
2018-12-19T23:01:58.284Z,15.57
2018-12-19T23:04:32.422Z,15.97
2018-12-19T23:07:08.259Z,16.10
2018-12-19T23:09:41.806Z,15.50
2018-12-19T23:12:17.147Z,15.33
2018-12-19T23:14:52.920Z,15.33
2018-12-19T23:17:34.444Z,14.80
2018-12-19T23:20:09.742Z,15.17
2018-12-19T23:22:45.623Z,15.30
2018-12-19T23:25:20.403Z,15.53
2018-12-19T23:27:56.097Z,14.93
2018-12-19T23:30:31.109Z,14.57
2018-12-19T23:33:07.072Z,13.07
2018-12-19T23:35:40.172Z,13.87
2018-12-19T23:38:15.553Z,14.20
2018-12-19T23:40:50.903Z,14.13
2018-12-19T23:43:24.185Z,13.20
2018-12-19T23:45:56.626Z,13.17
2018-12-19T23:48:31.720Z,13.87
2018-12-19T23:51:04.204Z,12.97
2018-12-19T23:53:37.257Z,12.30
2018-12-19T23:56:13.520Z,13.03
2018-12-19T23:58:48.018Z,13.47
